Eielson Air Force Base
PAEI : now visible

Airfield :











YOU CAN JOIN US ON...

 
LOGIN :

Register | Disclaimer

   EN    FR    IT 

 









Legend :    VFR   Marginal VFR   IFR   Intensive IFR   Very Intensive IFR
Visi :
Ceiling :
>= 8 km
>= 3000ft
5 to 8 km
1000 to 3000 ft
1500m to 5 km
500 to 1000 ft
800 to 1500m
200 to 500 ft
< 800m
< 200 ft
Symbols :   Thunderstorms  Fog  Heavy snow  Heavy precipitations  Wind > 20 kt






- Airport Elevation : 547 ft
- IATA code : EIL


PAEI - Eielson Air Force Base

CURRENT METAR :
  • 220256Z 00000KT 10SM BKN060 BKN120 M25/M29 A2959 RMK AO2A SLP043 T12521290 53001 $

EXPIRED METARs :
  • 220156Z 00000KT 10SM SCT047 OVC080 M26/M30 A2959 RMK AO2A SLP042 T12631301 $
  • 220150Z 00000KT 10SM SCT047 BKN060 OVC080 M26/M30 A2959 RMK AO2A SLP042 $
  • 220135Z 00000KT 10SM BKN047 OVC060 M27/M31 A2959 RMK AO2A SLP043 $
  • 220056Z 00000KT 10SM FEW070 SCT100 BKN150 M27/M31 A2959 RMK AO2A SLP043 T12731314 $

TAF TAF PAEI
Valid from the 21 at 22:00 until the 23 at 04:00 UTC


212200Z 2122/2304 VRB02KT 9999 FEW080 SCT150 QNH2955INS
BECMG 2202/2203 VRB02KT 9999 VCSH SCT030 BKN060 610604 QNH2953INS
BECMG 2206/2207 VRB02KT 4800 -SN BKN020 OVC050 620206 QNH2956INS
BECMG 2214/2215 VRB03KT 9999 VCSH SCT010 OVC050 610505 QNH2960INS
BECMG 2220/2221 VRB02KT 3200 -SN BR SCT006 BKN015 OVC030 620159 QNH2975INS TXM24/2222Z TNM29/2123Z



MET'MAP, your aeronautical weather chart ! - Copyright ORBIFLY December 2007 - Disclaimer

ORBIFLY MET'MAP TEAM :

Programming & Development : Alexandra Zaïnal
Concept & original design : Baudouin d'Aumeries
Assistance for programming : Marc-Olivier Méhu
Technical & hardware support : Manuel Goepfert

Contact : metmap@orbifly.com




SOURCES & CREDITS :

   NOAA       Earth
Advisory